sensor_id;sensor_type;location;lat;lon;timestamp;pressure;altitude;pressure_sealevel;temperature;humidity
38530;BME280;24301;54.332;48.386;2023-09-30T00:01:01;99470.53;;;10.71;68.82
38530;BME280;24301;54.332;48.386;2023-09-30T00:03:27;99471.47;;;10.65;69.33
38530;BME280;24301;54.332;48.386;2023-09-30T00:05:54;99464.50;;;10.59;69.35
38530;BME280;24301;54.332;48.386;2023-09-30T00:08:20;99476.78;;;10.57;69.52
38530;BME280;24301;54.332;48.386;2023-09-30T00:10:46;99474.19;;;10.53;69.72
38530;BME280;24301;54.332;48.386;2023-09-30T00:13:13;99475.09;;;10.50;69.98
38530;BME280;24301;54.332;48.386;2023-09-30T00:15:38;99468.09;;;10.49;70.14
38530;BME280;24301;54.332;48.386;2023-09-30T00:18:07;99466.31;;;10.49;69.99
38530;BME280;24301;54.332;48.386;2023-09-30T00:20:33;99460.16;;;10.54;69.71
38530;BME280;24301;54.332;48.386;2023-09-30T00:23:01;99463.69;;;10.51;69.42
38530;BME280;24301;54.332;48.386;2023-09-30T00:25:27;99467.16;;;10.52;69.47
38530;BME280;24301;54.332;48.386;2023-09-30T00:27:54;99476.78;;;10.56;69.55
38530;BME280;24301;54.332;48.386;2023-09-30T00:30:20;99472.44;;;10.53;69.27
38530;BME280;24301;54.332;48.386;2023-09-30T00:32:47;99480.31;;;10.53;69.71
38530;BME280;24301;54.332;48.386;2023-09-30T00:35:14;99477.72;;;10.50;69.83
38530;BME280;24301;54.332;48.386;2023-09-30T00:37:42;99482.06;;;10.48;69.68
38530;BME280;24301;54.332;48.386;2023-09-30T00:40:08;99468.13;;;10.37;69.85
38530;BME280;24301;54.332;48.386;2023-09-30T00:42:38;99468.09;;;10.40;69.89
38530;BME280;24301;54.332;48.386;2023-09-30T00:45:05;99482.97;;;10.44;70.26
38530;BME280;24301;54.332;48.386;2023-09-30T00:47:34;99482.13;;;10.42;69.90
38530;BME280;24301;54.332;48.386;2023-09-30T00:50:01;99484.75;;;10.39;70.02
38530;BME280;24301;54.332;48.386;2023-09-30T00:52:31;99488.28;;;10.36;70.16
38530;BME280;24301;54.332;48.386;2023-09-30T00:54:59;99488.25;;;10.33;70.18
38530;BME280;24301;54.332;48.386;2023-09-30T00:57:25;99490.94;;;10.28;70.25
38530;BME280;24301;54.332;48.386;2023-09-30T00:59:53;99485.69;;;10.27;70.56
38530;BME280;24301;54.332;48.386;2023-09-30T01:02:21;99485.69;;;10.28;70.42
38530;BME280;24301;54.332;48.386;2023-09-30T01:04:48;99488.31;;;10.28;70.31
38530;BME280;24301;54.332;48.386;2023-09-30T01:07:15;99485.69;;;10.28;70.47
38530;BME280;24301;54.332;48.386;2023-09-30T01:09:42;99484.81;;;10.26;70.07
38530;BME280;24301;54.332;48.386;2023-09-30T01:12:08;99485.72;;;10.25;69.99
38530;BME280;24301;54.332;48.386;2023-09-30T01:14:35;99492.66;;;10.32;69.84
38530;BME280;24301;54.332;48.386;2023-09-30T01:17:04;99491.78;;;10.33;69.98
38530;BME280;24301;54.332;48.386;2023-09-30T01:19:35;99483.94;;;10.27;69.68
38530;BME280;24301;54.332;48.386;2023-09-30T01:22:01;99490.91;;;10.33;69.62
38530;BME280;24301;54.332;48.386;2023-09-30T01:24:40;99498.78;;;10.34;70.07
38530;BME280;24301;54.332;48.386;2023-09-30T01:27:10;99497.03;;;10.33;69.41
38530;BME280;24301;54.332;48.386;2023-09-30T01:29:36;99493.53;;;10.33;69.98
38530;BME280;24301;54.332;48.386;2023-09-30T01:32:05;99493.53;;;10.33;69.89
38530;BME280;24301;54.332;48.386;2023-09-30T01:34:35;99491.78;;;10.32;69.93
38530;BME280;24301;54.332;48.386;2023-09-30T01:37:02;99490.91;;;10.33;69.75
38530;BME280;24301;54.332;48.386;2023-09-30T01:39:28;99494.41;;;10.33;69.57
38530;BME280;24301;54.332;48.386;2023-09-30T01:41:55;99497.03;;;10.33;69.63
38530;BME280;24301;54.332;48.386;2023-09-30T01:44:21;99498.78;;;10.36;69.34
38530;BME280;24301;54.332;48.386;2023-09-30T01:46:47;99505.78;;;10.37;69.27
38530;BME280;24301;54.332;48.386;2023-09-30T01:49:13;99500.53;;;10.37;69.65
38530;BME280;24301;54.332;48.386;2023-09-30T01:51:39;99497.88;;;10.39;69.28
38530;BME280;24301;54.332;48.386;2023-09-30T01:54:05;99499.66;;;10.33;69.34
38530;BME280;24301;54.332;48.386;2023-09-30T01:56:31;99497.91;;;10.32;69.53
38530;BME280;24301;54.332;48.386;2023-09-30T01:58:59;99504.91;;;10.33;69.37
38530;BME280;24301;54.332;48.386;2023-09-30T02:01:27;99506.69;;;10.31;69.47
38530;BME280;24301;54.332;48.386;2023-09-30T02:03:53;99504.06;;;10.28;69.26
38530;BME280;24301;54.332;48.386;2023-09-30T02:06:20;99514.59;;;10.28;69.28
38530;BME280;24301;54.332;48.386;2023-09-30T02:08:46;99513.72;;;10.20;69.44
38530;BME280;24301;54.332;48.386;2023-09-30T02:11:13;99522.50;;;10.20;69.63
38530;BME280;24301;54.332;48.386;2023-09-30T02:13:41;99516.41;;;10.11;69.71
38530;BME280;24301;54.332;48.386;2023-09-30T02:16:14;99526.03;;;10.07;70.34
38530;BME280;24301;54.332;48.386;2023-09-30T02:18:43;99513.81;;;10.01;70.15
38530;BME280;24301;54.332;48.386;2023-09-30T02:21:11;99520.84;;;9.99;70.43
38530;BME280;24301;54.332;48.386;2023-09-30T02:23:37;99523.47;;;9.95;70.70
38530;BME280;24301;54.332;48.386;2023-09-30T02:26:03;99524.34;;;9.89;70.50
38530;BME280;24301;54.332;48.386;2023-09-30T02:28:29;99529.66;;;9.80;70.87
38530;BME280;24301;54.332;48.386;2023-09-30T02:30:59;99526.16;;;9.68;70.91
38530;BME280;24301;54.332;48.386;2023-09-30T02:33:25;99534.06;;;9.63;70.92
38530;BME280;24301;54.332;48.386;2023-09-30T02:35:51;99530.56;;;9.57;71.36
38530;BME280;24301;54.332;48.386;2023-09-30T02:38:18;99529.72;;;9.48;71.60
38530;BME280;24301;54.332;48.386;2023-09-30T02:40:48;99534.09;;;9.49;72.20
38530;BME280;24301;54.332;48.386;2023-09-30T02:43:14;99534.97;;;9.48;72.12
38530;BME280;24301;54.332;48.386;2023-09-30T02:45:41;99536.69;;;9.43;72.01
38530;BME280;24301;54.332;48.386;2023-09-30T02:48:07;99534.06;;;9.40;72.22
38530;BME280;24301;54.332;48.386;2023-09-30T02:50:34;99541.94;;;9.43;72.58
38530;BME280;24301;54.332;48.386;2023-09-30T02:53:00;99534.91;;;9.67;72.48
38530;BME280;24301;54.332;48.386;2023-09-30T02:55:27;99536.56;;;10.05;72.50
38530;BME280;24301;54.332;48.386;2023-09-30T02:57:52;99529.34;;;10.57;71.69
38530;BME280;24301;54.332;48.386;2023-09-30T03:00:18;99531.63;;;11.10;70.53
38530;BME280;24301;54.332;48.386;2023-09-30T03:02:53;99521.34;;;11.77;69.23
38530;BME280;24301;54.332;48.386;2023-09-30T03:05:20;99519.69;;;12.44;67.39
38530;BME280;24301;54.332;48.386;2023-09-30T03:07:47;99533.69;;;13.08;65.35
38530;BME280;24301;54.332;48.386;2023-09-30T03:10:21;99530.09;;;13.68;62.65
38530;BME280;24301;54.332;48.386;2023-09-30T03:12:49;99531.53;;;14.28;61.73
38530;BME280;24301;54.332;48.386;2023-09-30T03:15:16;99524.66;;;15.00;59.80
38530;BME280;24301;54.332;48.386;2023-09-30T03:17:42;99530.63;;;15.79;57.72
38530;BME280;24301;54.332;48.386;2023-09-30T03:20:09;99533.50;;;16.34;55.43
38530;BME280;24301;54.332;48.386;2023-09-30T03:22:41;99533.72;;;15.97;54.39
38530;BME280;24301;54.332;48.386;2023-09-30T03:25:15;99541.78;;;15.22;55.13
38530;BME280;24301;54.332;48.386;2023-09-30T03:27:46;99532.78;;;14.52;56.05
38530;BME280;24301;54.332;48.386;2023-09-30T03:30:15;99547.91;;;14.03;56.91
38530;BME280;24301;54.332;48.386;2023-09-30T03:32:42;99553.03;;;13.64;57.55
38530;BME280;24301;54.332;48.386;2023-09-30T03:35:10;99540.47;;;13.23;58.34
38530;BME280;24301;54.332;48.386;2023-09-30T03:37:46;99538.44;;;12.85;59.22
38530;BME280;24301;54.332;48.386;2023-09-30T03:40:13;99544.81;;;12.70;60.02
38530;BME280;24301;54.332;48.386;2023-09-30T03:42:48;99536.09;;;12.64;60.57
38530;BME280;24301;54.332;48.386;2023-09-30T03:45:17;99530.88;;;12.61;60.04
38530;BME280;24301;54.332;48.386;2023-09-30T03:47:44;99541.06;;;12.86;60.15
38530;BME280;24301;54.332;48.386;2023-09-30T03:50:11;99535.19;;;13.23;59.92
38530;BME280;24301;54.332;48.386;2023-09-30T03:52:42;99538.16;;;13.60;58.89
38530;BME280;24301;54.332;48.386;2023-09-30T03:55:12;99536.72;;;13.90;58.39
38530;BME280;24301;54.332;48.386;2023-09-30T03:57:38;99531.28;;;14.41;56.96
38530;BME280;24301;54.332;48.386;2023-09-30T04:00:04;99539.03;;;14.48;56.54
38530;BME280;24301;54.332;48.386;2023-09-30T04:02:38;99535.63;;;15.57;55.67
38530;BME280;24301;54.332;48.386;2023-09-30T04:05:04;99535.28;;;16.92;53.16
38530;BME280;24301;54.332;48.386;2023-09-30T04:07:31;99532.97;;;17.64;50.59
38530;BME280;24301;54.332;48.386;2023-09-30T04:09:58;99527.75;;;18.59;48.77
38530;BME280;24301;54.332;48.386;2023-09-30T04:12:31;99532.56;;;20.41;46.40
38530;BME280;24301;54.332;48.386;2023-09-30T04:14:59;99535.56;;;22.31;42.56
38530;BME280;24301;54.332;48.386;2023-09-30T04:17:26;99523.66;;;23.78;39.57
38530;BME280;24301;54.332;48.386;2023-09-30T04:19:53;99535.72;;;24.87;37.04
38530;BME280;24301;54.332;48.386;2023-09-30T04:22:19;99544.94;;;25.78;35.23
38530;BME280;24301;54.332;48.386;2023-09-30T04:24:47;99542.50;;;26.64;33.50
38530;BME280;24301;54.332;48.386;2023-09-30T04:27:15;99542.69;;;27.36;32.45
38530;BME280;24301;54.332;48.386;2023-09-30T04:29:42;99544.47;;;27.95;30.99
38530;BME280;24301;54.332;48.386;2023-09-30T04:32:11;99550.03;;;28.51;29.33
38530;BME280;24301;54.332;48.386;2023-09-30T04:34:37;99555.00;;;29.01;29.28
38530;BME280;24301;54.332;48.386;2023-09-30T04:37:03;99561.84;;;29.82;28.37
38530;BME280;24301;54.332;48.386;2023-09-30T04:39:29;99569.34;;;30.21;26.88
38530;BME280;24301;54.332;48.386;2023-09-30T04:41:55;99567.06;;;30.57;26.19
38530;BME280;24301;54.332;48.386;2023-09-30T04:44:21;99569.19;;;30.94;25.90
38530;BME280;24301;54.332;48.386;2023-09-30T04:46:49;99585.53;;;31.24;25.25
38530;BME280;24301;54.332;48.386;2023-09-30T04:49:15;99591.25;;;31.80;24.74
38530;BME280;24301;54.332;48.386;2023-09-30T04:51:41;99600.25;;;32.00;23.91
38530;BME280;24301;54.332;48.386;2023-09-30T04:54:07;99600.84;;;32.42;23.35
38530;BME280;24301;54.332;48.386;2023-09-30T04:56:35;99614.38;;;32.61;23.22
38530;BME280;24301;54.332;48.386;2023-09-30T04:59:01;99604.03;;;32.27;23.18
38530;BME280;24301;54.332;48.386;2023-09-30T05:01:29;99604.53;;;32.50;22.91
38530;BME280;24301;54.332;48.386;2023-09-30T05:03:55;99607.53;;;33.13;21.94
38530;BME280;24301;54.332;48.386;2023-09-30T05:06:25;99617.28;;;33.70;21.45
38530;BME280;24301;54.332;48.386;2023-09-30T05:08:51;99616.41;;;34.06;21.20
38530;BME280;24301;54.332;48.386;2023-09-30T05:11:17;99621.97;;;34.22;20.54
38530;BME280;24301;54.332;48.386;2023-09-30T05:13:43;99619.69;;;34.36;20.59
38530;BME280;24301;54.332;48.386;2023-09-30T05:16:09;99625.91;;;34.55;20.62
38530;BME280;24301;54.332;48.386;2023-09-30T05:18:34;99625.41;;;34.51;20.06
38530;BME280;24301;54.332;48.386;2023-09-30T05:21:00;99622.75;;;34.15;20.13
38530;BME280;24301;54.332;48.386;2023-09-30T05:23:26;99625.53;;;34.23;20.39
38530;BME280;24301;54.332;48.386;2023-09-30T05:25:52;99621.66;;;34.52;20.40
38530;BME280;24301;54.332;48.386;2023-09-30T05:28:22;99622.78;;;34.76;19.83
38530;BME280;24301;54.332;48.386;2023-09-30T05:30:48;99627.41;;;34.84;19.99
38530;BME280;24301;54.332;48.386;2023-09-30T05:33:16;99630.34;;;34.90;19.66
38530;BME280;24301;54.332;48.386;2023-09-30T05:35:42;99628.28;;;34.92;19.60
38530;BME280;24301;54.332;48.386;2023-09-30T05:38:08;99634.78;;;34.91;19.53
38530;BME280;24301;54.332;48.386;2023-09-30T05:40:36;99632.00;;;35.34;19.57
38530;BME280;24301;54.332;48.386;2023-09-30T05:43:02;99623.56;;;35.71;19.04
38530;BME280;24301;54.332;48.386;2023-09-30T05:45:31;99628.50;;;35.67;18.73
38530;BME280;24301;54.332;48.386;2023-09-30T05:48:02;99627.66;;;35.66;18.77
38530;BME280;24301;54.332;48.386;2023-09-30T05:50:32;99632.63;;;36.04;18.27
38530;BME280;24301;54.332;48.386;2023-09-30T05:53:00;99629.81;;;36.37;18.19
38530;BME280;24301;54.332;48.386;2023-09-30T05:55:26;99630.53;;;36.15;18.15
38530;BME280;24301;54.332;48.386;2023-09-30T05:57:52;99633.91;;;36.42;18.48
38530;BME280;24301;54.332;48.386;2023-09-30T06:00:18;99626.31;;;36.77;18.01
38530;BME280;24301;54.332;48.386;2023-09-30T06:02:58;99630.22;;;36.09;17.75
38530;BME280;24301;54.332;48.386;2023-09-30T06:05:24;99621.97;;;34.22;18.32
38530;BME280;24301;54.332;48.386;2023-09-30T06:07:56;99629.22;;;32.39;20.26
38530;BME280;24301;54.332;48.386;2023-09-30T06:10:22;99611.91;;;31.12;21.61
38530;BME280;24301;54.332;48.386;2023-09-30T06:12:50;99623.63;;;30.40;22.17
38530;BME280;24301;54.332;48.386;2023-09-30T06:15:21;99608.41;;;31.21;21.99
38530;BME280;24301;54.332;48.386;2023-09-30T06:17:52;99607.25;;;31.34;21.68
38530;BME280;24301;54.332;48.386;2023-09-30T06:20:20;99614.25;;;31.56;22.18
38530;BME280;24301;54.332;48.386;2023-09-30T06:22:49;99613.81;;;31.21;21.76
38530;BME280;24301;54.332;48.386;2023-09-30T06:25:16;99617.56;;;30.89;22.46
38530;BME280;24301;54.332;48.386;2023-09-30T06:27:44;99615.41;;;30.83;22.73
38530;BME280;24301;54.332;48.386;2023-09-30T06:30:11;99612.88;;;31.01;22.53
38530;BME280;24301;54.332;48.386;2023-09-30T06:32:37;99615.13;;;30.86;22.32
38530;BME280;24301;54.332;48.386;2023-09-30T06:35:03;99602.56;;;30.85;22.61
38530;BME280;24301;54.332;48.386;2023-09-30T06:37:32;99597.59;;;30.59;22.67
38530;BME280;24301;54.332;48.386;2023-09-30T06:39:58;99614.53;;;31.23;22.20
38530;BME280;24301;54.332;48.386;2023-09-30T06:42:29;99607.25;;;31.24;21.93
38530;BME280;24301;54.332;48.386;2023-09-30T06:44:55;99609.84;;;31.35;21.89
38530;BME280;24301;54.332;48.386;2023-09-30T06:47:21;99607.25;;;31.73;21.57
38530;BME280;24301;54.332;48.386;2023-09-30T06:49:47;99609.16;;;31.02;21.66
38530;BME280;24301;54.332;48.386;2023-09-30T06:52:13;99611.53;;;30.45;22.17
38530;BME280;24301;54.332;48.386;2023-09-30T06:54:39;99612.81;;;30.19;22.78
38530;BME280;24301;54.332;48.386;2023-09-30T06:57:05;99614.50;;;29.78;23.00
38530;BME280;24301;54.332;48.386;2023-09-30T06:59:32;99605.06;;;29.72;23.17
38530;BME280;24301;54.332;48.386;2023-09-30T07:01:58;99606.47;;;30.61;22.71
38530;BME280;24301;54.332;48.386;2023-09-30T07:04:24;99609.75;;;31.06;22.12
38530;BME280;24301;54.332;48.386;2023-09-30T07:06:54;99608.69;;;31.38;21.56
38530;BME280;24301;54.332;48.386;2023-09-30T07:09:20;99611.69;;;31.54;21.81
38530;BME280;24301;54.332;48.386;2023-09-30T07:11:46;99607.84;;;31.87;21.19
38530;BME280;24301;54.332;48.386;2023-09-30T07:14:12;99611.97;;;31.81;21.61
38530;BME280;24301;54.332;48.386;2023-09-30T07:16:38;99610.88;;;32.31;21.44
38530;BME280;24301;54.332;48.386;2023-09-30T07:19:09;99618.44;;;33.31;20.41
38530;BME280;24301;54.332;48.386;2023-09-30T07:21:34;99610.03;;;33.24;19.47
38530;BME280;24301;54.332;48.386;2023-09-30T07:24:00;99607.28;;;33.52;18.58
38530;BME280;24301;54.332;48.386;2023-09-30T07:26:26;99608.09;;;33.89;18.53
38530;BME280;24301;54.332;48.386;2023-09-30T07:28:53;99601.19;;;32.94;19.36
38530;BME280;24301;54.332;48.386;2023-09-30T07:31:22;99605.75;;;33.04;19.22
38530;BME280;24301;54.332;48.386;2023-09-30T07:33:49;99605.31;;;33.45;18.65
38530;BME280;24301;54.332;48.386;2023-09-30T07:36:15;99606.78;;;33.57;19.27
38530;BME280;24301;54.332;48.386;2023-09-30T07:38:40;99609.19;;;33.96;18.62
38530;BME280;24301;54.332;48.386;2023-09-30T07:41:06;99615.06;;;33.92;17.79
38530;BME280;24301;54.332;48.386;2023-09-30T07:43:37;99609.47;;;34.38;17.50
38530;BME280;24301;54.332;48.386;2023-09-30T07:46:06;99614.22;;;34.71;17.03
38530;BME280;24301;54.332;48.386;2023-09-30T07:48:33;99604.38;;;33.54;16.98
38530;BME280;24301;54.332;48.386;2023-09-30T07:51:03;99605.22;;;32.05;18.45
38530;BME280;24301;54.332;48.386;2023-09-30T07:53:30;99597.84;;;31.77;18.39
38530;BME280;24301;54.332;48.386;2023-09-30T07:55:55;99604.81;;;31.70;18.88
38530;BME280;24301;54.332;48.386;2023-09-30T07:58:22;99608.41;;;31.21;19.00
38530;BME280;24301;54.332;48.386;2023-09-30T08:00:48;99604.88;;;30.28;19.45
38530;BME280;24301;54.332;48.386;2023-09-30T08:03:13;99603.81;;;28.77;20.70
38530;BME280;24301;54.332;48.386;2023-09-30T08:05:39;99603.41;;;27.17;22.36
38530;BME280;24301;54.332;48.386;2023-09-30T08:08:05;99589.03;;;25.08;24.70
38530;BME280;24301;54.332;48.386;2023-09-30T08:10:31;99600.78;;;23.44;26.89
38530;BME280;24301;54.332;48.386;2023-09-30T08:12:57;99603.38;;;22.32;28.77
38530;BME280;24301;54.332;48.386;2023-09-30T08:15:27;99605.72;;;21.87;29.44
38530;BME280;24301;54.332;48.386;2023-09-30T08:17:53;99596.03;;;21.30;30.63
38530;BME280;24301;54.332;48.386;2023-09-30T08:20:19;99597.06;;;20.70;31.66
38530;BME280;24301;54.332;48.386;2023-09-30T08:22:45;99592.06;;;20.43;31.88
38530;BME280;24301;54.332;48.386;2023-09-30T08:25:11;99586.94;;;20.38;31.17
38530;BME280;24301;54.332;48.386;2023-09-30T08:27:37;99588.78;;;20.17;32.11
38530;BME280;24301;54.332;48.386;2023-09-30T08:30:05;99594.31;;;19.91;33.21
38530;BME280;24301;54.332;48.386;2023-09-30T08:32:35;99585.63;;;19.65;33.30
38530;BME280;24301;54.332;48.386;2023-09-30T08:35:02;99588.47;;;19.40;33.15
38530;BME280;24301;54.332;48.386;2023-09-30T08:37:33;99579.09;;;19.30;33.54
38530;BME280;24301;54.332;48.386;2023-09-30T08:40:02;99579.53;;;19.41;33.17
38530;BME280;24301;54.332;48.386;2023-09-30T08:42:32;99583.09;;;19.19;33.03
38530;BME280;24301;54.332;48.386;2023-09-30T08:45:00;99578.66;;;18.96;33.75
38530;BME280;24301;54.332;48.386;2023-09-30T08:47:26;99566.06;;;18.77;34.01
38530;BME280;24301;54.332;48.386;2023-09-30T08:49:56;99567.13;;;18.95;34.35
38530;BME280;24301;54.332;48.386;2023-09-30T08:52:33;99566.13;;;18.76;34.54
38530;BME280;24301;54.332;48.386;2023-09-30T08:54:59;99564.25;;;18.56;34.87
38530;BME280;24301;54.332;48.386;2023-09-30T08:57:30;99567.81;;;18.31;35.26
38530;BME280;24301;54.332;48.386;2023-09-30T08:59:56;99565.03;;;18.34;34.82
38530;BME280;24301;54.332;48.386;2023-09-30T09:02:23;99577.84;;;18.48;34.92
38530;BME280;24301;54.332;48.386;2023-09-30T09:04:49;99577.19;;;18.41;34.08
38530;BME280;24301;54.332;48.386;2023-09-30T09:07:15;99582.13;;;18.03;34.75
38530;BME280;24301;54.332;48.386;2023-09-30T09:09:41;99573.16;;;17.80;36.08
38530;BME280;24301;54.332;48.386;2023-09-30T09:12:20;99581.91;;;17.84;36.86
38530;BME280;24301;54.332;48.386;2023-09-30T09:14:46;99576.13;;;17.96;36.66
38530;BME280;24301;54.332;48.386;2023-09-30T09:17:13;99576.34;;;18.15;36.96
38530;BME280;24301;54.332;48.386;2023-09-30T09:19:39;99578.97;;;18.17;36.13
38530;BME280;24301;54.332;48.386;2023-09-30T09:22:05;99566.25;;;18.25;36.38
38530;BME280;24301;54.332;48.386;2023-09-30T09:24:34;99571.88;;;18.41;36.09
38530;BME280;24301;54.332;48.386;2023-09-30T09:27:05;99563.72;;;18.46;35.91
38530;BME280;24301;54.332;48.386;2023-09-30T09:29:33;99567.53;;;18.38;36.12
38530;BME280;24301;54.332;48.386;2023-09-30T09:32:10;99577.47;;;18.09;36.34
38530;BME280;24301;54.332;48.386;2023-09-30T09:34:38;99570.63;;;18.02;36.07
38530;BME280;24301;54.332;48.386;2023-09-30T09:37:15;99574.00;;;18.07;36.00
38530;BME280;24301;54.332;48.386;2023-09-30T09:39:54;99576.25;;;17.93;36.60
38530;BME280;24301;54.332;48.386;2023-09-30T09:42:31;99568.88;;;17.76;36.67
38530;BME280;24301;54.332;48.386;2023-09-30T09:44:59;99569.59;;;17.79;36.32
38530;BME280;24301;54.332;48.386;2023-09-30T09:47:26;99565.84;;;17.87;36.26
38530;BME280;24301;54.332;48.386;2023-09-30T09:49:53;99564.09;;;17.86;36.14
38530;BME280;24301;54.332;48.386;2023-09-30T09:52:20;99557.19;;;17.80;35.98
38530;BME280;24301;54.332;48.386;2023-09-30T09:54:46;99562.38;;;17.85;35.72
38530;BME280;24301;54.332;48.386;2023-09-30T09:57:13;99557.34;;;17.75;36.90
38530;BME280;24301;54.332;48.386;2023-09-30T09:59:40;99553.03;;;17.73;37.13
38530;BME280;24301;54.332;48.386;2023-09-30T10:02:10;99546.41;;;17.85;36.49
38530;BME280;24301;54.332;48.386;2023-09-30T10:04:44;99550.31;;;17.74;36.31
38530;BME280;24301;54.332;48.386;2023-09-30T10:07:16;99552.75;;;17.55;36.45
38530;BME280;24301;54.332;48.386;2023-09-30T10:09:49;99553.81;;;17.49;36.65
38530;BME280;24301;54.332;48.386;2023-09-30T10:12:18;99545.44;;;17.62;36.51
38530;BME280;24301;54.332;48.386;2023-09-30T10:14:44;99536.66;;;17.60;36.48
38530;BME280;24301;54.332;48.386;2023-09-30T10:17:11;99536.00;;;17.53;36.54
38530;BME280;24301;54.332;48.386;2023-09-30T10:20:06;99559.19;;;17.73;36.44
38530;BME280;24301;54.332;48.386;2023-09-30T10:22:32;99547.97;;;17.65;36.30
38530;BME280;24301;54.332;48.386;2023-09-30T10:24:59;99553.06;;;17.71;36.46
38530;BME280;24301;54.332;48.386;2023-09-30T10:35:18;99543.25;;;17.48;37.17
38530;BME280;24301;54.332;48.386;2023-09-30T10:37:44;99549.38;;;17.50;37.32
38530;BME280;24301;54.332;48.386;2023-09-30T10:40:30;99536.69;;;17.58;37.53
38530;BME280;24301;54.332;48.386;2023-09-30T10:42:57;99539.94;;;17.66;37.26
38530;BME280;24301;54.332;48.386;2023-09-30T10:50:58;99537.03;;;17.22;38.31
38530;BME280;24301;54.332;48.386;2023-09-30T10:53:27;99534.56;;;17.16;38.55
38530;BME280;24301;54.332;48.386;2023-09-30T10:55:56;99532.81;;;17.15;38.54
38530;BME280;24301;54.332;48.386;2023-09-30T10:58:51;99531.38;;;17.06;39.12
38530;BME280;24301;54.332;48.386;2023-09-30T11:03:45;99546.06;;;17.16;38.97
38530;BME280;24301;54.332;48.386;2023-09-30T11:06:16;99536.66;;;17.06;39.39
38530;BME280;24301;54.332;48.386;2023-09-30T11:08:53;99535.28;;;17.21;39.26
38530;BME280;24301;54.332;48.386;2023-09-30T11:11:37;99530.94;;;17.18;39.27
38530;BME280;24301;54.332;48.386;2023-09-30T11:14:04;99524.00;;;17.14;39.41
38530;BME280;24301;54.332;48.386;2023-09-30T11:16:42;99530.84;;;17.21;39.21
38530;BME280;24301;54.332;48.386;2023-09-30T11:19:09;99533.28;;;17.28;39.28
38530;BME280;24301;54.332;48.386;2023-09-30T11:21:35;99524.75;;;17.45;39.18
38530;BME280;24301;54.332;48.386;2023-09-30T11:24:02;99533.91;;;17.36;39.15
38530;BME280;24301;54.332;48.386;2023-09-30T11:26:32;99526.50;;;17.19;39.19
38530;BME280;24301;54.332;48.386;2023-09-30T11:29:11;99531.19;;;17.11;39.75
38530;BME280;24301;54.332;48.386;2023-09-30T11:31:38;99529.56;;;17.06;39.37
38530;BME280;24301;54.332;48.386;2023-09-30T11:34:04;99528.28;;;16.90;39.28
38530;BME280;24301;54.332;48.386;2023-09-30T11:36:34;99522.41;;;16.80;40.02
38530;BME280;24301;54.332;48.386;2023-09-30T11:39:01;99517.94;;;16.82;39.99
38530;BME280;24301;54.332;48.386;2023-09-30T11:41:35;99525.69;;;16.88;40.09
38530;BME280;24301;54.332;48.386;2023-09-30T11:44:08;99521.09;;;16.93;39.93
38530;BME280;24301;54.332;48.386;2023-09-30T11:46:49;99520.75;;;17.06;40.31
38530;BME280;24301;54.332;48.386;2023-09-30T11:51:57;99509.69;;;17.18;39.37
38530;BME280;24301;54.332;48.386;2023-09-30T11:54:41;99519.81;;;17.34;39.75
38530;BME280;24301;54.332;48.386;2023-09-30T11:57:10;99515.44;;;17.33;39.75
38530;BME280;24301;54.332;48.386;2023-09-30T11:59:39;99522.97;;;17.18;39.71
38530;BME280;24301;54.332;48.386;2023-09-30T12:02:10;99511.06;;;17.03;40.24
38530;BME280;24301;54.332;48.386;2023-09-30T12:04:36;99512.03;;;17.01;40.32
38530;BME280;24301;54.332;48.386;2023-09-30T12:07:03;99504.72;;;17.09;40.50
38530;BME280;24301;54.332;48.386;2023-09-30T12:09:29;99501.13;;;17.10;40.52
38530;BME280;24301;54.332;48.386;2023-09-30T12:12:04;99509.84;;;17.14;40.94
38530;BME280;24301;54.332;48.386;2023-09-30T12:14:30;99502.75;;;17.14;40.49
38530;BME280;24301;54.332;48.386;2023-09-30T12:16:57;99510.19;;;17.03;40.35
38530;BME280;24301;54.332;48.386;2023-09-30T12:19:23;99500.16;;;16.84;40.44
38530;BME280;24301;54.332;48.386;2023-09-30T12:21:53;99510.94;;;16.78;40.68
38530;BME280;24301;54.332;48.386;2023-09-30T12:24:20;99501.66;;;16.64;40.78
38530;BME280;24301;54.332;48.386;2023-09-30T12:26:48;99498.09;;;16.65;41.03
38530;BME280;24301;54.332;48.386;2023-09-30T12:29:18;99496.88;;;16.76;40.89
38530;BME280;24301;54.332;48.386;2023-09-30T12:31:45;99503.09;;;16.75;40.85
38530;BME280;24301;54.332;48.386;2023-09-30T12:34:12;99497.97;;;16.69;40.86
38530;BME280;24301;54.332;48.386;2023-09-30T12:36:39;99503.69;;;16.56;41.20
38530;BME280;24301;54.332;48.386;2023-09-30T12:39:05;99489.16;;;16.40;41.04
38530;BME280;24301;54.332;48.386;2023-09-30T12:41:40;99491.34;;;16.25;41.27
38530;BME280;24301;54.332;48.386;2023-09-30T12:44:10;99491.44;;;16.22;41.46
38530;BME280;24301;54.332;48.386;2023-09-30T12:46:37;99491.34;;;16.25;41.72
38530;BME280;24301;54.332;48.386;2023-09-30T12:49:06;99497.41;;;16.30;41.76
38530;BME280;24301;54.332;48.386;2023-09-30T12:51:34;99490.09;;;16.37;41.76
38530;BME280;24301;54.332;48.386;2023-09-30T12:54:00;99491.72;;;16.43;41.72
38530;BME280;24301;54.332;48.386;2023-09-30T12:56:27;99491.59;;;16.46;41.72
38530;BME280;24301;54.332;48.386;2023-09-30T12:58:56;99493.41;;;16.45;41.82
38530;BME280;24301;54.332;48.386;2023-09-30T13:01:23;99483.75;;;16.43;41.86
38530;BME280;24301;54.332;48.386;2023-09-30T13:03:52;99489.94;;;16.43;42.13
38530;BME280;24301;54.332;48.386;2023-09-30T13:06:20;99494.66;;;16.33;41.89
38530;BME280;24301;54.332;48.386;2023-09-30T13:08:48;99489.44;;;16.30;41.92
38530;BME280;24301;54.332;48.386;2023-09-30T13:11:14;99486.84;;;16.27;41.93
38530;BME280;24301;54.332;48.386;2023-09-30T13:13:40;99493.22;;;16.21;42.18